Time;durP1;ratioP1;P1;durP2;ratioP2;P2;SDS_P1;SDS_P2;PMS_P1;PMS_P2;Temp;Humidity;BMP_temperature;BMP_pressure;BME280_temperature;BME280_humidity;BME280_pressure;Samples;Min_cycle;Max_cycle;Signal;HPM_P1;HPM_P2
2023/05/09 00:01:19;;;;;;;77.68;36.53;;;12.10;99.90;;;;;;4974645;28;20042;-53
2023/05/09 00:03:46;;;;;;;75.18;35.72;;;12.10;99.90;;;;;;5007802;28;20054;-56
2023/05/09 00:06:14;;;;;;;84.93;36.20;;;12.10;99.90;;;;;;4984891;28;20049;-54
2023/05/09 00:08:41;;;;;;;81.93;38.05;;;12.10;99.90;;;;;;4992813;28;20474;-56
2023/05/09 00:11:07;;;;;;;81.95;38.22;;;12.10;99.90;;;;;;4993633;28;20078;-57
2023/05/09 00:13:36;;;;;;;88.20;37.70;;;12.20;99.90;;;;;;5012372;28;20041;-56
2023/05/09 00:16:04;;;;;;;81.00;37.28;;;12.20;99.90;;;;;;4993857;28;20042;-57
2023/05/09 00:18:32;;;;;;;83.45;38.42;;;12.20;99.90;;;;;;4992282;28;20057;-56
2023/05/09 00:21:01;;;;;;;75.05;37.17;;;12.20;99.90;;;;;;4992245;28;20046;-56
2023/05/09 00:23:27;;;;;;;84.90;39.75;;;12.20;99.90;;;;;;4992740;28;20518;-56
2023/05/09 00:25:54;;;;;;;82.30;37.13;;;12.10;99.90;;;;;;4978724;28;20108;-57
2023/05/09 00:28:21;;;;;;;76.15;36.28;;;12.10;99.90;;;;;;5005171;28;20108;-56
2023/05/09 00:30:48;;;;;;;74.43;36.17;;;12.20;99.90;;;;;;4985494;28;20046;-54
2023/05/09 00:33:15;;;;;;;74.68;36.00;;;12.20;99.90;;;;;;4984301;28;20038;-57
2023/05/09 00:35:41;;;;;;;77.72;36.20;;;12.20;99.90;;;;;;4992317;28;20046;-57
2023/05/09 00:38:08;;;;;;;80.22;37.63;;;12.20;99.90;;;;;;4982908;28;20042;-57
2023/05/09 00:40:35;;;;;;;86.82;38.88;;;12.20;99.90;;;;;;4991312;28;20050;-57
2023/05/09 00:43:02;;;;;;;67.40;34.13;;;12.20;99.90;;;;;;5010172;28;20553;-57
2023/05/09 00:45:29;;;;;;;68.22;33.75;;;12.20;99.90;;;;;;4993990;28;20046;-56
2023/05/09 00:47:57;;;;;;;68.78;32.60;;;12.20;99.90;;;;;;4994198;28;20039;-56
2023/05/09 00:50:23;;;;;;;67.97;32.83;;;12.20;99.90;;;;;;4985914;28;20129;-57
2023/05/09 00:52:50;;;;;;;70.65;30.08;;;12.20;99.90;;;;;;4989502;28;20549;-57
2023/05/09 00:55:18;;;;;;;62.85;32.15;;;12.20;99.90;;;;;;5003089;28;20112;-56
2023/05/09 00:57:45;;;;;;;66.55;30.33;;;12.20;99.90;;;;;;4993621;28;20403;-57
2023/05/09 01:00:12;;;;;;;70.88;32.53;;;12.10;99.90;;;;;;4990592;28;20039;-56
2023/05/09 01:02:45;;;;;;;66.80;32.15;;;12.10;99.90;;;;;;5006661;28;20390;-55
2023/05/09 01:05:12;;;;;;;66.90;32.35;;;12.10;99.90;;;;;;5000079;28;20035;-55
2023/05/09 01:07:57;;;;;;;72.25;35.55;;;12.10;99.90;;;;;;4992008;28;20403;-55
2023/05/09 01:10:41;;;;;;;81.65;35.20;;;12.10;99.90;;;;;;4993002;28;20038;-58
2023/05/09 01:13:29;;;;;;;73.88;34.05;;;12.10;99.90;;;;;;4991802;28;20100;-56
2023/05/09 01:16:29;;;;;;;75.13;33.47;;;12.10;99.90;;;;;;4990432;28;20566;-56
2023/05/09 01:19:07;;;;;;;70.22;33.83;;;12.10;99.90;;;;;;4991402;28;20204;-57
2023/05/09 01:21:34;;;;;;;71.13;34.67;;;12.10;99.90;;;;;;4990384;28;20042;-56
2023/05/09 01:24:24;;;;;;;69.55;33.67;;;12.10;99.90;;;;;;4990407;28;20073;-57
2023/05/09 01:27:09;;;;;;;73.82;35.35;;;12.10;99.90;;;;;;4981013;28;20050;-57
2023/05/09 01:29:45;;;;;;;76.50;36.05;;;12.10;99.90;;;;;;4999137;28;20060;-57
2023/05/09 01:32:21;;;;;;;74.97;33.33;;;12.10;99.90;;;;;;4987255;28;20376;-56
2023/05/09 01:34:53;;;;;;;92.35;36.67;;;12.20;99.90;;;;;;5011571;28;20117;-55
2023/05/09 01:37:28;;;;;;;76.28;35.03;;;12.10;99.90;;;;;;4991095;28;20056;-55
2023/05/09 01:39:58;;;;;;;83.32;37.47;;;12.10;99.90;;;;;;4990009;28;20108;-56
2023/05/09 01:42:29;;;;;;;73.10;35.15;;;12.00;99.90;;;;;;4988653;28;20499;-57
2023/05/09 01:44:57;;;;;;;72.57;35.15;;;12.00;99.90;;;;;;4993069;28;20049;-57
2023/05/09 01:47:25;;;;;;;69.13;33.95;;;11.90;99.90;;;;;;4986198;28;20049;-56
2023/05/09 01:49:53;;;;;;;70.78;35.05;;;11.90;99.90;;;;;;4980573;28;20045;-57
2023/05/09 01:52:22;;;;;;;66.97;33.22;;;11.80;99.90;;;;;;4995501;28;20064;-57
2023/05/09 01:54:50;;;;;;;73.88;33.67;;;11.80;99.90;;;;;;4970075;28;20097;-56
2023/05/09 01:57:18;;;;;;;66.43;33.22;;;11.70;99.90;;;;;;4990558;28;20414;-56
2023/05/09 01:59:45;;;;;;;;;;;11.70;99.90;;;;;;4980739;28;20046;-53
2023/05/09 02:02:12;;;;;;;65.07;32.95;;;11.60;99.90;;;;;;5010965;28;20333;-57
2023/05/09 02:04:40;;;;;;;;;;;11.60;99.90;;;;;;4995508;28;20046;-56
2023/05/09 02:07:07;;;;;;;68.60;33.10;;;11.60;99.90;;;;;;4992594;28;19975;-56
2023/05/09 02:09:34;;;;;;;70.35;35.15;;;11.60;99.90;;;;;;5002460;28;20338;-55
2023/05/09 02:12:03;;;;;;;71.53;33.83;;;11.60;99.90;;;;;;4988352;28;20041;-55
2023/05/09 02:14:30;;;;;;;68.72;33.20;;;11.50;99.90;;;;;;4996838;28;20107;-57
2023/05/09 02:17:04;;;;;;;73.80;34.22;;;11.60;99.90;;;;;;4988438;28;20062;-56
2023/05/09 02:19:35;;;;;;;62.78;33.33;;;11.50;99.90;;;;;;4995111;28;20050;-54
2023/05/09 02:22:03;;;;;;;68.13;33.78;;;11.60;99.90;;;;;;4975922;28;20105;-58
2023/05/09 02:24:33;;;;;;;63.08;31.58;;;11.60;99.90;;;;;;5000624;28;20046;-56
2023/05/09 02:27:04;;;;;;;66.60;34.33;;;11.60;99.90;;;;;;5005337;28;20485;-57
2023/05/09 02:29:40;;;;;;;67.78;33.97;;;11.60;99.90;;;;;;4994865;28;20073;-54
2023/05/09 02:32:10;;;;;;;62.95;32.20;;;11.60;99.90;;;;;;4984351;28;20041;-55
2023/05/09 02:34:39;;;;;;;66.15;32.92;;;11.60;99.90;;;;;;4990899;28;20045;-56
2023/05/09 02:37:07;;;;;;;62.60;33.25;;;11.60;99.90;;;;;;4993857;28;20685;-55
2023/05/09 02:39:34;;;;;;;67.60;32.13;;;11.60;99.90;;;;;;5006444;28;20045;-57
2023/05/09 02:42:05;;;;;;;;;;;11.60;99.90;;;;;;4987557;28;20037;-54
2023/05/09 02:44:32;;;;;;;59.55;31.85;;;11.60;99.90;;;;;;4981825;28;20379;-57
2023/05/09 02:47:04;;;;;;;62.58;32.25;;;11.60;99.90;;;;;;4997533;28;20042;-56
2023/05/09 02:49:31;;;;;;;68.45;32.25;;;11.60;99.90;;;;;;4976801;28;20121;-57
2023/05/09 02:52:00;;;;;;;64.85;33.50;;;11.70;99.90;;;;;;4992447;28;20130;-57
2023/05/09 02:54:27;;;;;;;70.60;34.30;;;11.70;99.90;;;;;;4975974;28;20073;-56
2023/05/09 02:56:54;;;;;;;65.72;34.00;;;11.80;99.90;;;;;;5008697;28;20044;-56
2023/05/09 02:59:21;;;;;;;61.55;31.48;;;11.80;99.90;;;;;;4992488;28;20046;-53
2023/05/09 03:01:48;;;;;;;55.20;29.27;;;11.90;99.90;;;;;;4990992;28;20073;-55
2023/05/09 03:04:15;;;;;;;43.85;24.02;;;11.90;99.90;;;;;;4992099;28;20133;-55
2023/05/09 03:06:44;;;;;;;45.40;23.30;;;11.90;99.90;;;;;;4992803;28;20061;-55
2023/05/09 03:09:12;;;;;;;43.60;21.52;;;11.90;99.90;;;;;;4985916;28;20072;-58
2023/05/09 03:11:39;;;;;;;39.47;20.75;;;11.90;99.90;;;;;;4983864;28;20066;-54
2023/05/09 03:14:07;;;;;;;38.30;20.75;;;11.90;99.90;;;;;;4984135;28;20449;-56
2023/05/09 03:16:34;;;;;;;55.60;28.00;;;11.90;99.90;;;;;;4984091;28;20085;-55
2023/05/09 03:19:01;;;;;;;70.72;29.83;;;11.90;99.90;;;;;;5008819;28;20510;-56
2023/05/09 03:21:28;;;;;;;65.65;31.83;;;11.90;99.90;;;;;;4985571;28;20066;-57
2023/05/09 03:23:55;;;;;;;65.25;33.38;;;11.80;99.90;;;;;;4977314;28;20058;-56
2023/05/09 03:26:22;;;;;;;66.55;31.48;;;11.80;99.90;;;;;;4982191;28;20100;-56
2023/05/09 03:28:49;;;;;;;72.82;35.85;;;11.80;99.90;;;;;;4980937;28;20122;-55
2023/05/09 03:31:15;;;;;;;65.85;33.03;;;11.70;99.90;;;;;;4992197;28;20042;-55
2023/05/09 03:33:42;;;;;;;70.07;34.78;;;11.70;99.90;;;;;;4982171;28;20121;-56
2023/05/09 03:36:09;;;;;;;69.45;33.38;;;11.60;99.90;;;;;;4986034;28;20039;-57
2023/05/09 03:38:38;;;;;;;71.93;34.95;;;11.60;99.90;;;;;;4984885;28;20057;-56
2023/05/09 03:41:05;;;;;;;69.45;34.85;;;11.50;99.90;;;;;;4993035;28;20065;-56
2023/05/09 03:43:32;;;;;;;64.60;32.92;;;11.50;99.90;;;;;;4987519;28;20065;-56
2023/05/09 03:45:58;;;;;;;65.10;32.25;;;11.50;99.90;;;;;;4994356;28;20390;-55
2023/05/09 03:48:26;;;;;;;66.97;32.95;;;11.60;99.90;;;;;;4978806;28;20514;-53
2023/05/09 03:50:52;;;;;;;66.85;33.92;;;11.60;99.90;;;;;;4982017;28;20076;-55
2023/05/09 03:53:20;;;;;;;64.57;33.72;;;11.60;99.90;;;;;;4985383;28;20039;-57
2023/05/09 03:55:49;;;;;;;70.47;33.78;;;11.60;99.90;;;;;;4982302;28;20463;-56
2023/05/09 03:58:18;;;;;;;75.97;34.53;;;11.60;99.90;;;;;;4992087;28;20046;-55
2023/05/09 04:00:45;;;;;;;69.35;34.95;;;11.60;99.90;;;;;;4987555;28;20050;-57
2023/05/09 04:03:18;;;;;;;65.88;33.65;;;11.50;99.90;;;;;;4998755;28;20050;-57
2023/05/09 04:05:46;;;;;;;63.67;33.25;;;11.50;99.90;;;;;;4983119;28;20038;-56
2023/05/09 04:08:24;;;;;;;73.35;35.28;;;11.50;99.90;;;;;;4980072;28;20049;-57
2023/05/09 04:10:51;;;;;;;;;;;11.50;99.90;;;;;;4985899;28;20049;-56
2023/05/09 04:13:18;;;;;;;54.10;28.23;;;11.50;99.90;;;;;;5000922;28;19928;-54
2023/05/09 04:15:45;;;;;;;51.83;27.02;;;11.50;99.90;;;;;;4987506;28;20070;-57
2023/05/09 04:18:12;;;;;;;46.20;25.40;;;11.40;99.90;;;;;;4983517;28;20062;-56
2023/05/09 04:20:39;;;;;;;47.58;25.88;;;11.20;99.90;;;;;;4994124;28;20049;-56
2023/05/09 04:23:05;;;;;;;50.20;25.45;;;11.20;99.90;;;;;;4984996;28;20042;-54
2023/05/09 04:25:33;;;;;;;46.83;24.23;;;11.10;99.90;;;;;;4992660;28;20034;-54
2023/05/09 04:28:01;;;;;;;43.05;24.60;;;11.10;99.90;;;;;;4984306;28;20044;-54
2023/05/09 04:30:28;;;;;;;48.45;25.25;;;11.10;99.90;;;;;;4990337;28;20057;-56
2023/05/09 04:32:55;;;;;;;52.05;26.75;;;11.10;99.90;;;;;;4990103;28;20068;-54
2023/05/09 04:35:22;;;;;;;52.92;27.45;;;11.10;99.90;;;;;;4977796;28;20493;-57
2023/05/09 04:37:51;;;;;;;48.15;27.40;;;11.10;99.90;;;;;;4986351;28;20133;-55
2023/05/09 04:40:18;;;;;;;46.10;25.60;;;11.10;99.90;;;;;;4973290;28;20047;-56
2023/05/09 04:42:52;;;;;;;48.50;24.98;;;11.10;99.90;;;;;;5010899;28;20042;-56
2023/05/09 04:45:22;;;;;;;42.60;23.52;;;11.10;99.90;;;;;;4974720;28;20069;-57
2023/05/09 04:47:50;;;;;;;43.75;22.83;;;11.00;99.90;;;;;;4985921;28;20068;-56
2023/05/09 04:50:16;;;;;;;44.65;24.30;;;11.00;99.90;;;;;;4984909;28;20144;-56
2023/05/09 04:52:43;;;;;;;48.75;25.02;;;11.20;99.90;;;;;;4994129;28;20054;-57
2023/05/09 04:55:10;;;;;;;47.03;24.38;;;11.30;99.90;;;;;;4993303;28;20398;-57
2023/05/09 04:57:41;;;;;;;33.67;19.10;;;11.40;99.90;;;;;;4985685;28;20034;-53
2023/05/09 05:00:10;;;;;;;23.98;13.77;;;11.60;99.90;;;;;;4984692;28;20433;-56
2023/05/09 05:02:38;;;;;;;20.92;12.10;;;11.60;99.90;;;;;;4995595;28;20046;-57
2023/05/09 05:05:05;;;;;;;14.68;9.07;;;11.70;99.90;;;;;;5002921;28;20048;-54
2023/05/09 05:07:40;;;;;;;11.05;5.78;;;11.80;99.90;;;;;;4991810;28;20070;-56
2023/05/09 05:10:09;;;;;;;10.55;5.82;;;11.90;99.90;;;;;;4988142;28;20042;-57
2023/05/09 05:12:38;;;;;;;6.68;4.80;;;12.00;99.90;;;;;;4986580;28;20041;-54
2023/05/09 05:15:08;;;;;;;6.32;4.70;;;12.10;99.90;;;;;;4985996;28;20046;-56
2023/05/09 05:17:35;;;;;;;;;;;12.20;99.90;;;;;;4994078;28;20057;-57
2023/05/09 05:20:05;;;;;;;8.65;4.72;;;12.30;99.90;;;;;;4993807;28;19973;-58
2023/05/09 05:22:32;;;;;;;6.13;4.22;;;12.50;99.90;;;;;;4990210;28;20050;-56
2023/05/09 05:24:59;;;;;;;8.63;4.03;;;12.60;99.90;;;;;;5005911;28;20049;-56
2023/05/09 05:27:26;;;;;;;5.80;3.88;;;12.70;99.90;;;;;;4988893;28;20043;-56
2023/05/09 05:29:52;;;;;;;5.43;3.75;;;12.60;99.90;;;;;;4981513;28;20133;-57
2023/05/09 05:32:19;;;;;;;7.13;4.60;;;12.70;99.90;;;;;;4986689;28;20129;-56
2023/05/09 05:34:46;;;;;;;9.95;6.82;;;12.70;99.90;;;;;;4984520;28;20093;-57
2023/05/09 05:37:13;;;;;;;16.65;9.57;;;12.90;99.90;;;;;;4982650;28;20407;-58
2023/05/09 05:39:41;;;;;;;20.05;11.40;;;13.00;99.90;;;;;;5002398;28;20045;-56
2023/05/09 05:42:08;;;;;;;15.38;8.90;;;13.00;99.90;;;;;;4992366;28;20046;-56
2023/05/09 05:44:35;;;;;;;7.15;5.00;;;13.00;99.90;;;;;;4987776;28;20129;-57
2023/05/09 05:47:03;;;;;;;7.30;5.20;;;12.80;99.90;;;;;;4997310;28;20038;-55
2023/05/09 05:49:30;;;;;;;11.02;5.30;;;12.80;99.90;;;;;;4984025;28;20034;-57
2023/05/09 05:51:57;;;;;;;7.43;5.10;;;12.80;99.90;;;;;;4996824;28;20046;-57
2023/05/09 05:54:24;;;;;;;7.45;5.07;;;12.90;99.90;;;;;;4986878;28;20050;-56
2023/05/09 05:56:53;;;;;;;12.60;6.63;;;12.90;99.90;;;;;;4984562;28;20491;-56
2023/05/09 05:59:19;;;;;;;10.05;6.35;;;13.10;99.90;;;;;;5012853;28;20517;-56
2023/05/09 06:01:48;;;;;;;11.93;7.18;;;13.20;99.90;;;;;;4996433;28;20495;-57
2023/05/09 06:04:15;;;;;;;7.35;5.15;;;13.20;99.90;;;;;;4980364;28;20039;-57
2023/05/09 06:06:42;;;;;;;8.10;4.85;;;13.20;99.90;;;;;;4992173;28;20042;-57
2023/05/09 06:09:09;;;;;;;7.43;4.10;;;13.20;99.90;;;;;;4994144;28;20456;-56
2023/05/09 06:11:36;;;;;;;9.15;6.07;;;13.20;99.90;;;;;;4984054;28;20052;-56
2023/05/09 06:14:03;;;;;;;13.63;6.55;;;13.40;99.90;;;;;;4992440;28;20046;-56
2023/05/09 06:16:29;;;;;;;21.27;12.18;;;13.60;99.90;;;;;;4993606;28;20525;-56
2023/05/09 06:18:56;;;;;;;23.65;14.40;;;13.60;99.90;;;;;;4993006;28;20121;-55
2023/05/09 06:21:23;;;;;;;26.67;14.55;;;13.70;99.90;;;;;;4984084;28;20042;-58
2023/05/09 06:23:50;;;;;;;17.48;9.82;;;13.80;99.90;;;;;;4989560;28;20045;-55
2023/05/09 06:26:34;;;;;;;24.02;12.02;;;13.90;99.90;;;;;;4984831;28;20042;-56
2023/05/09 06:29:01;;;;;;;;;;;14.10;99.90;;;;;;4993265;28;20038;-56
2023/05/09 06:31:28;;;;;;;29.85;16.50;;;14.10;99.90;;;;;;5003037;28;19932;-56
2023/05/09 06:33:55;;;;;;;;;;;14.20;99.90;;;;;;4999621;28;20042;-56
2023/05/09 06:36:21;;;;;;;33.85;19.20;;;14.30;99.90;;;;;;4993554;28;19921;-56
2023/05/09 06:38:48;;;;;;;33.60;18.83;;;14.40;99.90;;;;;;4993515;28;20104;-57
2023/05/09 06:41:15;;;;;;;33.92;19.77;;;14.50;99.90;;;;;;4993623;28;20043;-57
2023/05/09 06:43:41;;;;;;;34.85;20.30;;;14.80;99.90;;;;;;4994100;28;20050;-57
2023/05/09 06:46:08;;;;;;;34.55;18.70;;;15.00;99.90;;;;;;4999448;28;20460;-57
2023/05/09 06:48:35;;;;;;;32.67;18.73;;;15.30;99.90;;;;;;5002260;28;20048;-56
2023/05/09 06:51:01;;;;;;;32.97;18.55;;;15.50;99.90;;;;;;4993177;28;20097;-53
2023/05/09 06:53:28;;;;;;;29.65;16.80;;;15.50;99.90;;;;;;4992615;28;20495;-58
2023/05/09 06:55:55;;;;;;;30.40;18.50;;;15.50;99.90;;;;;;4993940;28;20535;-57
2023/05/09 06:58:22;;;;;;;29.65;16.92;;;15.50;99.90;;;;;;4992935;28;20173;-57
2023/05/09 07:00:50;;;;;;;28.83;16.65;;;15.50;99.90;;;;;;4991740;28;20083;-57
2023/05/09 07:03:16;;;;;;;27.52;16.10;;;15.60;99.90;;;;;;5010226;28;20446;-57
2023/05/09 07:05:43;;;;;;;24.73;16.42;;;15.80;99.90;;;;;;5000096;28;20049;-56
2023/05/09 07:08:10;;;;;;;24.27;15.77;;;16.00;99.90;;;;;;4993703;28;20126;-57
2023/05/09 07:10:37;;;;;;;29.30;17.42;;;16.10;99.90;;;;;;5002980;28;20041;-56
2023/05/09 07:13:05;;;;;;;34.45;17.08;;;16.20;99.90;;;;;;5005942;28;20092;-57
2023/05/09 07:15:32;;;;;;;26.08;15.18;;;16.50;99.90;;;;;;4993216;28;20046;-57
2023/05/09 07:18:08;;;;;;;22.52;14.43;;;16.80;99.90;;;;;;4992201;28;20052;-56
2023/05/09 07:20:35;;;;;;;23.23;14.73;;;17.20;99.90;;;;;;5011780;28;20402;-57
2023/05/09 07:23:02;;;;;;;29.73;15.30;;;17.50;99.90;;;;;;4995360;28;20487;-57
2023/05/09 07:25:29;;;;;;;25.33;15.68;;;17.60;99.90;;;;;;5010318;28;20050;-58
2023/05/09 07:27:56;;;;;;;23.38;14.90;;;17.60;99.90;;;;;;4997735;28;20076;-56
2023/05/09 07:30:23;;;;;;;23.98;16.02;;;17.60;99.90;;;;;;4991269;28;20046;-57
2023/05/09 07:32:50;;;;;;;19.73;12.70;;;17.80;99.90;;;;;;4996575;28;20042;-56
2023/05/09 07:35:18;;;;;;;;;;;17.80;99.90;;;;;;5012482;28;20046;-57
2023/05/09 07:37:44;;;;;;;21.92;13.60;;;17.70;99.90;;;;;;4992653;28;19965;-58
2023/05/09 07:40:12;;;;;;;32.33;15.35;;;17.70;99.90;;;;;;4992657;28;20050;-57
2023/05/09 07:42:39;;;;;;;22.27;14.35;;;17.70;99.90;;;;;;4993026;28;20046;-56
2023/05/09 07:45:06;;;;;;;23.33;14.32;;;17.70;99.90;;;;;;4996752;28;20104;-57
2023/05/09 07:47:33;;;;;;;19.67;12.73;;;17.70;99.90;;;;;;5001773;28;20096;-57
2023/05/09 07:50:00;;;;;;;19.63;13.15;;;17.60;99.90;;;;;;4993888;28;20050;-57
2023/05/09 07:52:26;;;;;;;23.00;13.90;;;17.40;99.90;;;;;;5009957;28;20561;-57
2023/05/09 07:54:53;;;;;;;20.15;12.77;;;17.10;99.90;;;;;;4997657;28;20042;-57
2023/05/09 07:57:20;;;;;;;22.88;13.52;;;17.10;99.90;;;;;;5007896;28;20050;-58
2023/05/09 07:59:47;;;;;;;16.98;10.43;;;17.20;99.90;;;;;;4999628;28;20093;-57
2023/05/09 08:02:13;;;;;;;16.55;11.18;;;17.30;99.90;;;;;;4998929;28;20548;-57
2023/05/09 08:04:40;;;;;;;17.38;11.98;;;17.40;99.90;;;;;;5000066;28;20034;-56
2023/05/09 08:07:07;;;;;;;21.13;12.15;;;17.40;99.90;;;;;;4992208;28;20041;-58
2023/05/09 08:09:35;;;;;;;;;;;17.40;99.90;;;;;;5002060;28;20046;-56
2023/05/09 08:12:01;;;;;;;16.83;10.27;;;17.40;99.90;;;;;;5005552;28;19928;-56
2023/05/09 08:14:28;;;;;;;16.40;10.73;;;17.40;99.90;;;;;;4991711;28;20046;-55
2023/05/09 08:16:55;;;;;;;26.27;12.48;;;17.50;99.90;;;;;;4996602;28;20100;-56
2023/05/09 08:19:24;;;;;;;16.10;10.45;;;17.40;99.90;;;;;;4993539;28;20049;-57
2023/05/09 08:21:52;;;;;;;16.02;10.23;;;17.60;99.90;;;;;;4991493;28;20048;-56
2023/05/09 08:24:19;;;;;;;19.98;11.15;;;17.50;99.90;;;;;;4991542;28;20086;-56
2023/05/09 08:26:45;;;;;;;15.63;9.65;;;17.50;99.90;;;;;;5003082;28;20046;-58
2023/05/09 08:29:12;;;;;;;17.25;10.07;;;17.40;99.90;;;;;;5003815;28;20030;-58
2023/05/09 08:31:39;;;;;;;13.05;9.45;;;17.40;99.90;;;;;;4990906;28;20042;-57
2023/05/09 08:34:06;;;;;;;;;;;17.60;99.90;;;;;;4990952;28;20125;-57
2023/05/09 08:36:33;;;;;;;15.75;10.27;;;17.60;99.90;;;;;;5010010;28;20372;-54
2023/05/09 08:39:00;;;;;;;14.10;9.05;;;17.50;99.90;;;;;;4997514;28;20510;-57
2023/05/09 08:41:26;;;;;;;15.63;9.70;;;17.60;99.90;;;;;;4991472;28;20046;-57
2023/05/09 08:43:54;;;;;;;16.35;9.85;;;17.70;99.90;;;;;;5003806;28;20048;-56
2023/05/09 08:46:27;;;;;;;;;;;17.80;99.90;;;;;;5002732;28;20066;-56
2023/05/09 08:48:55;;;;;;;15.68;9.63;;;18.00;99.90;;;;;;4991296;28;20418;-56
2023/05/09 08:51:22;;;;;;;13.15;8.90;;;18.10;99.90;;;;;;4988494;28;20038;-57
2023/05/09 08:53:50;;;;;;;15.07;9.07;;;18.20;99.90;;;;;;5007329;28;20454;-56
2023/05/09 08:56:17;;;;;;;16.95;9.07;;;18.20;99.90;;;;;;4991398;28;20038;-57
2023/05/09 08:58:44;;;;;;;14.65;9.35;;;18.10;99.90;;;;;;4986162;28;20096;-57
2023/05/09 09:01:13;;;;;;;10.20;7.97;;;18.20;99.90;;;;;;5010778;28;20081;-57
2023/05/09 09:03:46;;;;;;;11.50;7.55;;;18.40;99.90;;;;;;4991798;28;20050;-58
2023/05/09 09:06:13;;;;;;;12.95;8.02;;;18.50;99.90;;;;;;4990140;28;20414;-57
2023/05/09 09:08:40;;;;;;;15.05;8.35;;;18.60;99.90;;;;;;5011533;28;20045;-57
2023/05/09 09:11:12;;;;;;;17.88;8.10;;;18.60;99.90;;;;;;5000067;28;20046;-53
2023/05/09 09:13:40;;;;;;;16.20;7.75;;;18.70;99.90;;;;;;4995628;28;20117;-56
2023/05/09 09:16:18;;;;;;;12.60;7.50;;;18.70;99.90;;;;;;4995191;28;20041;-57
2023/05/09 09:18:46;;;;;;;10.32;6.70;;;19.00;99.90;;;;;;4995669;28;20054;-57
2023/05/09 09:21:18;;;;;;;13.73;6.75;;;19.10;99.90;;;;;;4995086;28;20058;-56
2023/05/09 09:23:46;;;;;;;8.65;6.75;;;19.20;99.90;;;;;;4997646;28;20552;-56
2023/05/09 09:26:13;;;;;;;12.25;5.97;;;19.10;99.90;;;;;;5015082;28;20041;-57
2023/05/09 09:28:41;;;;;;;9.55;5.63;;;19.20;99.90;;;;;;4995526;28;20074;-58
2023/05/09 09:31:22;;;;;;;6.40;5.32;;;19.40;99.90;;;;;;4995008;28;20088;-57
2023/05/09 09:33:50;;;;;;;11.05;6.65;;;19.50;99.90;;;;;;4988427;28;20519;-57
2023/05/09 09:36:35;;;;;;;8.38;4.85;;;19.40;99.90;;;;;;4980368;28;20495;-56
2023/05/09 09:39:04;;;;;;;6.88;5.28;;;19.60;99.90;;;;;;5008827;28;20407;-57
2023/05/09 09:41:36;;;;;;;11.40;5.07;;;19.80;99.90;;;;;;4995690;28;20050;-57
2023/05/09 09:44:07;;;;;;;9.90;5.25;;;19.80;99.90;;;;;;4993831;28;20053;-54
2023/05/09 09:46:49;;;;;;;6.55;5.10;;;19.70;99.90;;;;;;4994888;28;20038;-58
2023/05/09 09:49:20;;;;;;;6.43;4.70;;;19.70;99.90;;;;;;4995010;28;20061;-55
2023/05/09 09:51:55;;;;;;;8.52;5.20;;;19.80;99.90;;;;;;4986766;28;20038;-56
2023/05/09 09:54:26;;;;;;;6.75;4.72;;;20.00;99.90;;;;;;4998457;28;20042;-57
2023/05/09 09:56:53;;;;;;;8.05;4.63;;;20.10;99.90;;;;;;5003141;28;20077;-56
2023/05/09 09:59:23;;;;;;;6.45;4.38;;;20.20;99.90;;;;;;4994538;28;20407;-58
2023/05/09 10:01:59;;;;;;;6.85;4.07;;;20.20;99.90;;;;;;5005935;28;20042;-57
2023/05/09 10:04:30;;;;;;;7.13;4.68;;;20.40;99.90;;;;;;5004725;28;20088;-57
2023/05/09 10:07:03;;;;;;;6.18;3.60;;;20.40;99.90;;;;;;4994480;28;20454;-58
2023/05/09 10:09:30;;;;;;;6.00;4.15;;;20.50;99.90;;;;;;5001104;28;20046;-58
2023/05/09 10:12:02;;;;;;;4.63;3.55;;;20.60;99.90;;;;;;5008755;28;20097;-56
2023/05/09 10:14:30;;;;;;;6.95;2.70;;;20.60;99.90;;;;;;4993984;28;20126;-55
2023/05/09 10:17:02;;;;;;;2.30;2.10;;;20.70;99.90;;;;;;4994600;28;20092;-55
2023/05/09 10:19:30;;;;;;;4.50;3.00;;;20.90;99.90;;;;;;4994245;28;20088;-57
2023/05/09 10:22:03;;;;;;;6.03;3.03;;;21.00;99.90;;;;;;5005594;28;20042;-58
2023/05/09 10:24:40;;;;;;;5.15;2.97;;;21.20;99.90;;;;;;5004877;28;20081;-55
2023/05/09 10:27:11;;;;;;;3.90;3.08;;;21.30;99.90;;;;;;4994198;28;20097;-57
2023/05/09 10:29:46;;;;;;;3.70;2.50;;;21.40;99.90;;;;;;4993626;28;20495;-58
2023/05/09 10:32:22;;;;;;;4.45;2.42;;;21.30;99.90;;;;;;4993835;28;20073;-56
2023/05/09 10:34:53;;;;;;;3.80;2.75;;;21.30;99.90;;;;;;4994067;28;20069;-57
2023/05/09 10:37:21;;;;;;;2.40;2.20;;;21.40;99.90;;;;;;5008857;28;20092;-57
2023/05/09 10:39:52;;;;;;;3.22;2.47;;;21.60;99.90;;;;;;5002178;28;20042;-57
2023/05/09 10:42:19;;;;;;;3.45;2.40;;;21.70;99.90;;;;;;4993872;28;20058;-56
2023/05/09 10:44:46;;;;;;;;;;;21.80;99.90;;;;;;5003881;28;20084;-57
2023/05/09 10:47:14;;;;;;;1.98;1.77;;;21.90;99.90;;;;;;5007071;28;19968;-57
2023/05/09 10:49:43;;;;;;;4.18;1.75;;;22.00;99.90;;;;;;4993403;28;20049;-58
2023/05/09 10:52:10;;;;;;;1.77;1.40;;;22.10;99.90;;;;;;4998380;28;20046;-57
2023/05/09 10:54:37;;;;;;;3.05;1.50;;;22.10;99.90;;;;;;5003712;28;20073;-55
2023/05/09 10:57:07;;;;;;;3.40;1.60;;;22.00;99.90;;;;;;4999007;28;20331;-58
2023/05/09 10:59:42;;;;;;;2.38;1.02;;;22.00;99.90;;;;;;4993347;28;20054;-57
2023/05/09 11:02:13;;;;;;;1.83;1.10;;;22.10;99.10;;;;;;4998063;28;20046;-57
2023/05/09 11:04:40;;;;;;;1.70;1.20;;;22.00;98.30;;;;;;5005190;28;20042;-56
2023/05/09 11:07:25;;;;;;;2.13;1.60;;;22.10;98.50;;;;;;4998726;28;20425;-56
2023/05/09 11:10:09;;;;;;;2.97;1.45;;;22.00;99.00;;;;;;4988834;28;20073;-57
2023/05/09 11:12:56;;;;;;;1.98;1.23;;;22.00;99.90;;;;;;5003302;28;20070;-56
2023/05/09 11:15:25;;;;;;;1.60;1.25;;;22.20;97.50;;;;;;4993297;28;20085;-56
2023/05/09 11:18:06;;;;;;;1.27;1.13;;;22.30;99.80;;;;;;5003492;28;20088;-58
2023/05/09 11:20:34;;;;;;;3.72;1.60;;;22.30;98.00;;;;;;5003465;28;20053;-57
2023/05/09 11:23:03;;;;;;;2.42;1.60;;;22.20;99.40;;;;;;4993172;28;20042;-59
2023/05/09 11:25:30;;;;;;;2.95;1.75;;;22.20;99.90;;;;;;4992656;28;20053;-59
2023/05/09 11:28:00;;;;;;;4.28;2.05;;;22.30;99.90;;;;;;4993322;28;20436;-56
2023/05/09 11:30:42;;;;;;;1.92;1.40;;;22.50;99.90;;;;;;4992543;28;20074;-58
2023/05/09 11:33:23;;;;;;;2.40;1.60;;;22.80;98.10;;;;;;5001295;28;20390;-56
2023/05/09 11:36:18;;;;;;;2.88;1.50;;;22.70;98.10;;;;;;5001551;28;20534;-56
2023/05/09 11:38:46;;;;;;;3.42;1.40;;;22.80;98.40;;;;;;4991587;28;20046;-56
2023/05/09 11:41:13;;;;;;;1.10;1.00;;;22.80;98.40;;;;;;4996557;28;20050;-57
2023/05/09 11:43:41;;;;;;;2.20;1.20;;;22.80;96.30;;;;;;5010420;28;20054;-57
2023/05/09 11:46:08;;;;;;;2.30;1.25;;;22.70;96.20;;;;;;4991864;28;20065;-57
2023/05/09 11:48:38;;;;;;;2.60;1.20;;;22.70;96.00;;;;;;4992074;28;20046;-55
2023/05/09 11:51:06;;;;;;;1.48;1.33;;;22.80;95.70;;;;;;4992272;28;20071;-56
2023/05/09 11:53:33;;;;;;;2.28;1.38;;;22.70;95.00;;;;;;4992595;28;20513;-58
2023/05/09 11:56:06;;;;;;;1.20;1.10;;;22.80;96.10;;;;;;4995756;28;20038;-58
2023/05/09 11:58:37;;;;;;;2.38;1.50;;;22.90;95.50;;;;;;5011921;28;20375;-57
2023/05/09 12:01:05;;;;;;;2.40;1.20;;;23.10;97.10;;;;;;4991304;28;20046;-55
2023/05/09 12:03:32;;;;;;;2.03;1.83;;;23.20;97.40;;;;;;4992404;28;20055;-58
2023/05/09 12:06:00;;;;;;;6.78;1.63;;;23.30;97.90;;;;;;4991938;28;20113;-56
2023/05/09 12:08:28;;;;;;;2.63;1.30;;;23.40;96.60;;;;;;4992534;28;20502;-57
2023/05/09 12:11:06;;;;;;;2.25;1.48;;;23.40;96.40;;;;;;4993956;28;20486;-57
2023/05/09 12:13:34;;;;;;;2.95;2.42;;;23.30;96.60;;;;;;5003546;28;20074;-58
2023/05/09 12:16:01;;;;;;;3.53;2.28;;;23.30;96.70;;;;;;4991978;28;20038;-57
2023/05/09 12:18:28;;;;;;;6.35;2.97;;;23.30;97.40;;;;;;4992308;28;20081;-56
2023/05/09 12:20:54;;;;;;;6.70;2.92;;;23.30;97.00;;;;;;4993327;28;20034;-57
2023/05/09 12:23:22;;;;;;;4.22;2.30;;;23.30;99.00;;;;;;5011891;28;20380;-58
2023/05/09 12:25:54;;;;;;;3.13;2.42;;;23.10;96.50;;;;;;4992575;28;20076;-57
2023/05/09 12:28:23;;;;;;;6.80;3.17;;;23.10;96.60;;;;;;4992150;28;20050;-58
2023/05/09 12:30:51;;;;;;;5.70;2.40;;;23.20;96.80;;;;;;4991088;28;20077;-56
2023/05/09 12:33:18;;;;;;;3.10;2.60;;;23.20;96.50;;;;;;4992207;28;20109;-57
2023/05/09 12:35:46;;;;;;;;;;;23.30;96.00;;;;;;4992892;28;20046;-55
2023/05/09 12:38:14;;;;;;;7.88;3.40;;;23.20;96.10;;;;;;5011665;28;19948;-56
2023/05/09 12:40:43;;;;;;;5.85;3.08;;;23.30;97.70;;;;;;4993122;28;20053;-57
2023/05/09 12:43:09;;;;;;;3.45;3.05;;;23.50;98.50;;;;;;4990408;28;20491;-55
2023/05/09 12:45:38;;;;;;;6.25;3.45;;;23.60;97.40;;;;;;5008225;28;20041;-58
2023/05/09 12:48:04;;;;;;;3.05;2.75;;;23.70;97.00;;;;;;4998883;28;20046;-56